sensor_id;sensor_type;location;lat;lon;timestamp;P1;durP1;ratioP1;P2;durP2;ratioP2
22786;SDS011;63134;52.020;4.714;2023-01-26T00:02:45;246.57;;;57.53;;
22786;SDS011;63134;52.020;4.714;2023-01-26T00:05:30;267.50;;;61.95;;
22786;SDS011;63134;52.020;4.714;2023-01-26T00:08:16;272.30;;;59.80;;
22786;SDS011;63134;52.020;4.714;2023-01-26T00:11:04;242.45;;;59.22;;
22786;SDS011;63134;52.020;4.714;2023-01-26T00:13:51;261.75;;;60.72;;
22786;SDS011;63134;52.020;4.714;2023-01-26T00:16:39;274.75;;;59.85;;
22786;SDS011;63134;52.020;4.714;2023-01-26T00:19:24;254.65;;;57.33;;
22786;SDS011;63134;52.020;4.714;2023-01-26T00:22:10;256.25;;;58.97;;
22786;SDS011;63134;52.020;4.714;2023-01-26T00:24:55;236.63;;;56.00;;
22786;SDS011;63134;52.020;4.714;2023-01-26T00:27:45;235.10;;;55.63;;
22786;SDS011;63134;52.020;4.714;2023-01-26T00:30:34;236.02;;;55.30;;
22786;SDS011;63134;52.020;4.714;2023-01-26T00:33:19;213.23;;;53.78;;
22786;SDS011;63134;52.020;4.714;2023-01-26T00:36:11;202.40;;;51.72;;
22786;SDS011;63134;52.020;4.714;2023-01-26T00:38:57;212.90;;;51.83;;
22786;SDS011;63134;52.020;4.714;2023-01-26T00:41:43;212.55;;;50.83;;
22786;SDS011;63134;52.020;4.714;2023-01-26T00:44:47;221.02;;;52.42;;
22786;SDS011;63134;52.020;4.714;2023-01-26T00:47:35;201.95;;;49.55;;
22786;SDS011;63134;52.020;4.714;2023-01-26T00:50:21;208.38;;;52.30;;
22786;SDS011;63134;52.020;4.714;2023-01-26T00:53:09;215.73;;;50.55;;
22786;SDS011;63134;52.020;4.714;2023-01-26T00:55:54;186.45;;;49.08;;
22786;SDS011;63134;52.020;4.714;2023-01-26T00:58:42;201.25;;;51.13;;
22786;SDS011;63134;52.020;4.714;2023-01-26T01:01:29;204.20;;;48.65;;
22786;SDS011;63134;52.020;4.714;2023-01-26T01:04:14;195.10;;;50.42;;
22786;SDS011;63134;52.020;4.714;2023-01-26T01:07:01;164.82;;;45.97;;
22786;SDS011;63134;52.020;4.714;2023-01-26T01:09:49;202.70;;;50.72;;
22786;SDS011;63134;52.020;4.714;2023-01-26T01:12:38;187.43;;;48.15;;
22786;SDS011;63134;52.020;4.714;2023-01-26T01:15:26;196.00;;;49.28;;
22786;SDS011;63134;52.020;4.714;2023-01-26T01:18:15;181.02;;;47.88;;
22786;SDS011;63134;52.020;4.714;2023-01-26T01:21:05;187.60;;;48.35;;
22786;SDS011;63134;52.020;4.714;2023-01-26T01:24:01;191.32;;;51.10;;
22786;SDS011;63134;52.020;4.714;2023-01-26T01:26:50;175.00;;;47.38;;
22786;SDS011;63134;52.020;4.714;2023-01-26T01:29:35;196.30;;;51.35;;
22786;SDS011;63134;52.020;4.714;2023-01-26T01:32:21;180.25;;;48.17;;
22786;SDS011;63134;52.020;4.714;2023-01-26T01:35:06;201.93;;;49.97;;
22786;SDS011;63134;52.020;4.714;2023-01-26T01:37:52;184.95;;;49.47;;
22786;SDS011;63134;52.020;4.714;2023-01-26T01:40:41;180.20;;;48.22;;
22786;SDS011;63134;52.020;4.714;2023-01-26T01:43:30;191.30;;;49.22;;
22786;SDS011;63134;52.020;4.714;2023-01-26T01:46:28;199.48;;;49.78;;
22786;SDS011;63134;52.020;4.714;2023-01-26T01:49:24;180.57;;;51.95;;
22786;SDS011;63134;52.020;4.714;2023-01-26T01:52:35;187.52;;;48.72;;
22786;SDS011;63134;52.020;4.714;2023-01-26T01:55:30;201.35;;;49.65;;
22786;SDS011;63134;52.020;4.714;2023-01-26T01:58:16;169.20;;;47.25;;
22786;SDS011;63134;52.020;4.714;2023-01-26T02:01:02;191.95;;;49.00;;
22786;SDS011;63134;52.020;4.714;2023-01-26T02:03:48;164.73;;;46.15;;
22786;SDS011;63134;52.020;4.714;2023-01-26T02:06:49;178.00;;;47.15;;
22786;SDS011;63134;52.020;4.714;2023-01-26T02:09:37;169.35;;;45.55;;
22786;SDS011;63134;52.020;4.714;2023-01-26T02:12:42;172.10;;;47.25;;
22786;SDS011;63134;52.020;4.714;2023-01-26T02:15:31;186.02;;;48.55;;
22786;SDS011;63134;52.020;4.714;2023-01-26T02:18:19;177.70;;;48.13;;
22786;SDS011;63134;52.020;4.714;2023-01-26T02:21:05;182.45;;;46.70;;
22786;SDS011;63134;52.020;4.714;2023-01-26T02:24:03;192.20;;;47.38;;
22786;SDS011;63134;52.020;4.714;2023-01-26T02:29:48;190.82;;;46.63;;
22786;SDS011;63134;52.020;4.714;2023-01-26T02:32:34;195.55;;;46.65;;
22786;SDS011;63134;52.020;4.714;2023-01-26T02:35:28;195.70;;;45.80;;
22786;SDS011;63134;52.020;4.714;2023-01-26T02:38:13;200.25;;;48.35;;
22786;SDS011;63134;52.020;4.714;2023-01-26T02:41:07;193.27;;;47.75;;
22786;SDS011;63134;52.020;4.714;2023-01-26T02:43:55;198.88;;;47.20;;
22786;SDS011;63134;52.020;4.714;2023-01-26T02:46:44;245.63;;;51.63;;
22786;SDS011;63134;52.020;4.714;2023-01-26T02:49:31;213.35;;;48.28;;
22786;SDS011;63134;52.020;4.714;2023-01-26T02:52:32;215.50;;;49.55;;
22786;SDS011;63134;52.020;4.714;2023-01-26T02:55:38;209.85;;;46.75;;
22786;SDS011;63134;52.020;4.714;2023-01-26T02:58:25;228.00;;;51.28;;
22786;SDS011;63134;52.020;4.714;2023-01-26T03:01:11;186.63;;;45.40;;
22786;SDS011;63134;52.020;4.714;2023-01-26T03:04:03;220.38;;;47.25;;
22786;SDS011;63134;52.020;4.714;2023-01-26T03:06:49;187.95;;;45.97;;
22786;SDS011;63134;52.020;4.714;2023-01-26T03:09:40;217.68;;;50.22;;
22786;SDS011;63134;52.020;4.714;2023-01-26T03:12:26;229.40;;;50.92;;
22786;SDS011;63134;52.020;4.714;2023-01-26T03:15:11;227.52;;;49.30;;
22786;SDS011;63134;52.020;4.714;2023-01-26T03:18:19;209.30;;;47.50;;
22786;SDS011;63134;52.020;4.714;2023-01-26T03:21:29;190.80;;;45.67;;
22786;SDS011;63134;52.020;4.714;2023-01-26T03:24:33;216.65;;;48.15;;
22786;SDS011;63134;52.020;4.714;2023-01-26T03:27:47;204.23;;;47.60;;
22786;SDS011;63134;52.020;4.714;2023-01-26T03:30:33;197.07;;;46.33;;
22786;SDS011;63134;52.020;4.714;2023-01-26T03:33:20;210.70;;;48.55;;
22786;SDS011;63134;52.020;4.714;2023-01-26T03:36:06;200.55;;;46.83;;
22786;SDS011;63134;52.020;4.714;2023-01-26T03:38:58;199.68;;;47.80;;
22786;SDS011;63134;52.020;4.714;2023-01-26T03:41:47;194.93;;;47.13;;
22786;SDS011;63134;52.020;4.714;2023-01-26T03:44:52;193.65;;;47.15;;
22786;SDS011;63134;52.020;4.714;2023-01-26T03:48:02;193.20;;;46.28;;
22786;SDS011;63134;52.020;4.714;2023-01-26T03:51:10;180.55;;;45.28;;
22786;SDS011;63134;52.020;4.714;2023-01-26T03:54:15;197.38;;;46.13;;
22786;SDS011;63134;52.020;4.714;2023-01-26T03:57:19;192.48;;;46.25;;
22786;SDS011;63134;52.020;4.714;2023-01-26T04:00:09;211.45;;;48.40;;
22786;SDS011;63134;52.020;4.714;2023-01-26T04:03:02;179.60;;;45.33;;
22786;SDS011;63134;52.020;4.714;2023-01-26T04:06:08;199.07;;;48.40;;
22786;SDS011;63134;52.020;4.714;2023-01-26T04:09:22;179.10;;;46.22;;
22786;SDS011;63134;52.020;4.714;2023-01-26T04:12:08;188.75;;;46.00;;
22786;SDS011;63134;52.020;4.714;2023-01-26T04:15:05;191.13;;;47.08;;
22786;SDS011;63134;52.020;4.714;2023-01-26T04:18:09;199.48;;;46.50;;
22786;SDS011;63134;52.020;4.714;2023-01-26T04:21:14;135.27;;;36.08;;
22786;SDS011;63134;52.020;4.714;2023-01-26T04:24:18;155.65;;;40.80;;
22786;SDS011;63134;52.020;4.714;2023-01-26T04:27:11;165.25;;;42.65;;
22786;SDS011;63134;52.020;4.714;2023-01-26T04:29:58;169.45;;;44.95;;
22786;SDS011;63134;52.020;4.714;2023-01-26T04:32:43;166.00;;;45.08;;
22786;SDS011;63134;52.020;4.714;2023-01-26T04:35:30;150.38;;;41.92;;
22786;SDS011;63134;52.020;4.714;2023-01-26T04:38:17;156.43;;;43.35;;
22786;SDS011;63134;52.020;4.714;2023-01-26T04:41:02;162.73;;;44.67;;
22786;SDS011;63134;52.020;4.714;2023-01-26T04:43:53;145.93;;;42.42;;
22786;SDS011;63134;52.020;4.714;2023-01-26T04:46:40;149.38;;;42.60;;
22786;SDS011;63134;52.020;4.714;2023-01-26T04:49:30;155.05;;;44.13;;
22786;SDS011;63134;52.020;4.714;2023-01-26T04:52:16;149.98;;;43.17;;
22786;SDS011;63134;52.020;4.714;2023-01-26T04:55:02;154.85;;;40.88;;
22786;SDS011;63134;52.020;4.714;2023-01-26T04:57:49;144.68;;;41.92;;
22786;SDS011;63134;52.020;4.714;2023-01-26T05:00:35;146.73;;;41.53;;
22786;SDS011;63134;52.020;4.714;2023-01-26T05:03:23;149.13;;;42.05;;
22786;SDS011;63134;52.020;4.714;2023-01-26T05:06:22;138.68;;;40.45;;
22786;SDS011;63134;52.020;4.714;2023-01-26T05:09:08;142.82;;;42.63;;
22786;SDS011;63134;52.020;4.714;2023-01-26T05:12:10;140.40;;;42.95;;
22786;SDS011;63134;52.020;4.714;2023-01-26T05:15:40;154.77;;;43.13;;
22786;SDS011;63134;52.020;4.714;2023-01-26T05:18:33;137.70;;;42.72;;
22786;SDS011;63134;52.020;4.714;2023-01-26T05:21:33;143.07;;;42.08;;
22786;SDS011;63134;52.020;4.714;2023-01-26T05:24:19;154.57;;;45.70;;
22786;SDS011;63134;52.020;4.714;2023-01-26T05:27:27;128.55;;;38.45;;
22786;SDS011;63134;52.020;4.714;2023-01-26T05:30:16;130.07;;;41.40;;
22786;SDS011;63134;52.020;4.714;2023-01-26T05:33:27;137.13;;;41.80;;
22786;SDS011;63134;52.020;4.714;2023-01-26T05:36:14;124.82;;;41.67;;
22786;SDS011;63134;52.020;4.714;2023-01-26T05:39:02;130.63;;;41.90;;
22786;SDS011;63134;52.020;4.714;2023-01-26T05:41:47;123.93;;;41.95;;
22786;SDS011;63134;52.020;4.714;2023-01-26T05:45:16;130.48;;;40.58;;
22786;SDS011;63134;52.020;4.714;2023-01-26T05:48:06;115.82;;;39.40;;
22786;SDS011;63134;52.020;4.714;2023-01-26T05:50:54;127.75;;;40.92;;
22786;SDS011;63134;52.020;4.714;2023-01-26T05:53:41;124.10;;;42.03;;
22786;SDS011;63134;52.020;4.714;2023-01-26T05:56:26;122.85;;;39.95;;
22786;SDS011;63134;52.020;4.714;2023-01-26T05:59:16;123.55;;;39.80;;
22786;SDS011;63134;52.020;4.714;2023-01-26T06:02:02;116.93;;;39.28;;
22786;SDS011;63134;52.020;4.714;2023-01-26T06:04:48;122.60;;;39.88;;
22786;SDS011;63134;52.020;4.714;2023-01-26T06:07:33;123.18;;;40.65;;
22786;SDS011;63134;52.020;4.714;2023-01-26T06:10:28;125.50;;;41.13;;
22786;SDS011;63134;52.020;4.714;2023-01-26T06:13:19;130.48;;;41.58;;
22786;SDS011;63134;52.020;4.714;2023-01-26T06:16:10;135.50;;;39.42;;
22786;SDS011;63134;52.020;4.714;2023-01-26T06:18:57;155.90;;;40.13;;
22786;SDS011;63134;52.020;4.714;2023-01-26T06:21:42;152.25;;;40.42;;
22786;SDS011;63134;52.020;4.714;2023-01-26T06:24:29;156.63;;;39.92;;
22786;SDS011;63134;52.020;4.714;2023-01-26T06:27:18;152.18;;;41.13;;
22786;SDS011;63134;52.020;4.714;2023-01-26T06:30:08;193.73;;;43.58;;
22786;SDS011;63134;52.020;4.714;2023-01-26T06:32:55;218.40;;;42.65;;
22786;SDS011;63134;52.020;4.714;2023-01-26T06:35:43;263.23;;;42.90;;
22786;SDS011;63134;52.020;4.714;2023-01-26T06:38:32;312.60;;;46.78;;
22786;SDS011;63134;52.020;4.714;2023-01-26T06:41:24;312.40;;;47.28;;
22786;SDS011;63134;52.020;4.714;2023-01-26T06:44:12;331.67;;;46.85;;
22786;SDS011;63134;52.020;4.714;2023-01-26T06:47:02;447.15;;;54.20;;
22786;SDS011;63134;52.020;4.714;2023-01-26T06:49:49;337.40;;;47.35;;
22786;SDS011;63134;52.020;4.714;2023-01-26T06:52:35;566.97;;;55.35;;
22786;SDS011;63134;52.020;4.714;2023-01-26T06:55:35;509.27;;;54.00;;
22786;SDS011;63134;52.020;4.714;2023-01-26T06:58:44;455.02;;;51.22;;
22786;SDS011;63134;52.020;4.714;2023-01-26T07:01:50;517.45;;;50.75;;
22786;SDS011;63134;52.020;4.714;2023-01-26T07:04:35;418.05;;;50.15;;
22786;SDS011;63134;52.020;4.714;2023-01-26T07:07:23;518.53;;;52.00;;
22786;SDS011;63134;52.020;4.714;2023-01-26T07:10:09;347.10;;;46.95;;
22786;SDS011;63134;52.020;4.714;2023-01-26T07:12:57;339.83;;;47.33;;
22786;SDS011;63134;52.020;4.714;2023-01-26T07:15:42;296.00;;;47.55;;
22786;SDS011;63134;52.020;4.714;2023-01-26T07:18:28;233.95;;;46.60;;
22786;SDS011;63134;52.020;4.714;2023-01-26T07:21:17;238.48;;;47.13;;
22786;SDS011;63134;52.020;4.714;2023-01-26T07:24:07;216.25;;;43.33;;
22786;SDS011;63134;52.020;4.714;2023-01-26T07:26:53;186.77;;;42.55;;
22786;SDS011;63134;52.020;4.714;2023-01-26T07:29:39;176.00;;;38.70;;
22786;SDS011;63134;52.020;4.714;2023-01-26T07:32:25;160.93;;;37.08;;
22786;SDS011;63134;52.020;4.714;2023-01-26T07:35:13;174.27;;;37.53;;
22786;SDS011;63134;52.020;4.714;2023-01-26T07:37:58;150.50;;;34.28;;
22786;SDS011;63134;52.020;4.714;2023-01-26T07:40:44;134.63;;;30.25;;
22786;SDS011;63134;52.020;4.714;2023-01-26T07:43:33;136.63;;;30.17;;
22786;SDS011;63134;52.020;4.714;2023-01-26T07:46:19;112.28;;;23.30;;
22786;SDS011;63134;52.020;4.714;2023-01-26T07:49:05;103.28;;;24.75;;
22786;SDS011;63134;52.020;4.714;2023-01-26T07:51:51;83.00;;;18.23;;
22786;SDS011;63134;52.020;4.714;2023-01-26T07:54:37;82.05;;;17.33;;
22786;SDS011;63134;52.020;4.714;2023-01-26T07:57:23;77.28;;;16.70;;
22786;SDS011;63134;52.020;4.714;2023-01-26T08:00:08;64.07;;;14.60;;
22786;SDS011;63134;52.020;4.714;2023-01-26T08:02:56;49.17;;;11.65;;
22786;SDS011;63134;52.020;4.714;2023-01-26T08:05:42;65.75;;;13.05;;
22786;SDS011;63134;52.020;4.714;2023-01-26T08:08:27;70.85;;;11.05;;
22786;SDS011;63134;52.020;4.714;2023-01-26T08:11:12;53.47;;;10.23;;
22786;SDS011;63134;52.020;4.714;2023-01-26T08:13:58;52.08;;;8.15;;
22786;SDS011;63134;52.020;4.714;2023-01-26T08:17:02;49.63;;;7.35;;
22786;SDS011;63134;52.020;4.714;2023-01-26T08:19:47;45.42;;;7.28;;
22786;SDS011;63134;52.020;4.714;2023-01-26T08:22:33;54.60;;;7.80;;
22786;SDS011;63134;52.020;4.714;2023-01-26T08:25:21;57.03;;;7.38;;
22786;SDS011;63134;52.020;4.714;2023-01-26T08:28:07;50.25;;;7.38;;
22786;SDS011;63134;52.020;4.714;2023-01-26T08:30:52;49.45;;;7.53;;
22786;SDS011;63134;52.020;4.714;2023-01-26T08:33:38;52.03;;;7.60;;
22786;SDS011;63134;52.020;4.714;2023-01-26T08:36:25;54.55;;;8.10;;
22786;SDS011;63134;52.020;4.714;2023-01-26T08:39:12;40.47;;;6.72;;
22786;SDS011;63134;52.020;4.714;2023-01-26T08:41:57;47.90;;;6.55;;
22786;SDS011;63134;52.020;4.714;2023-01-26T08:44:43;47.47;;;6.40;;
22786;SDS011;63134;52.020;4.714;2023-01-26T08:47:29;63.85;;;8.63;;
22786;SDS011;63134;52.020;4.714;2023-01-26T08:50:15;51.53;;;8.07;;
22786;SDS011;63134;52.020;4.714;2023-01-26T08:53:00;54.55;;;8.30;;
22786;SDS011;63134;52.020;4.714;2023-01-26T08:55:46;49.85;;;6.78;;
22786;SDS011;63134;52.020;4.714;2023-01-26T08:58:41;45.58;;;7.57;;
22786;SDS011;63134;52.020;4.714;2023-01-26T09:01:27;34.33;;;5.20;;
22786;SDS011;63134;52.020;4.714;2023-01-26T09:04:12;53.65;;;7.68;;
22786;SDS011;63134;52.020;4.714;2023-01-26T09:06:58;51.45;;;6.85;;
22786;SDS011;63134;52.020;4.714;2023-01-26T09:09:44;55.85;;;6.75;;
22786;SDS011;63134;52.020;4.714;2023-01-26T09:12:29;46.45;;;6.38;;
22786;SDS011;63134;52.020;4.714;2023-01-26T09:15:15;51.50;;;7.63;;
22786;SDS011;63134;52.020;4.714;2023-01-26T09:18:01;48.38;;;6.68;;
22786;SDS011;63134;52.020;4.714;2023-01-26T09:20:46;58.83;;;7.95;;
22786;SDS011;63134;52.020;4.714;2023-01-26T09:23:42;47.30;;;7.70;;
22786;SDS011;63134;52.020;4.714;2023-01-26T09:26:28;48.30;;;7.45;;
22786;SDS011;63134;52.020;4.714;2023-01-26T09:29:15;53.13;;;7.63;;
22786;SDS011;63134;52.020;4.714;2023-01-26T09:32:00;60.42;;;8.00;;
22786;SDS011;63134;52.020;4.714;2023-01-26T09:34:45;51.75;;;7.75;;
22786;SDS011;63134;52.020;4.714;2023-01-26T09:37:31;60.13;;;8.50;;
22786;SDS011;63134;52.020;4.714;2023-01-26T09:43:20;44.38;;;6.53;;
22786;SDS011;63134;52.020;4.714;2023-01-26T09:49:08;48.00;;;6.55;;
22786;SDS011;63134;52.020;4.714;2023-01-26T09:55:11;50.75;;;8.30;;
22786;SDS011;63134;52.020;4.714;2023-01-26T09:58:02;57.28;;;7.78;;
22786;SDS011;63134;52.020;4.714;2023-01-26T10:03:45;51.55;;;7.07;;
22786;SDS011;63134;52.020;4.714;2023-01-26T10:06:40;44.63;;;6.45;;
22786;SDS011;63134;52.020;4.714;2023-01-26T10:09:38;53.30;;;8.05;;
22786;SDS011;63134;52.020;4.714;2023-01-26T10:12:30;35.90;;;6.32;;
22786;SDS011;63134;52.020;4.714;2023-01-26T10:18:06;48.92;;;7.85;;
22786;SDS011;63134;52.020;4.714;2023-01-26T10:20:57;44.72;;;7.80;;
22786;SDS011;63134;52.020;4.714;2023-01-26T10:23:46;45.42;;;7.57;;
22786;SDS011;63134;52.020;4.714;2023-01-26T10:26:33;59.95;;;8.90;;
22786;SDS011;63134;52.020;4.714;2023-01-26T10:29:22;50.85;;;7.38;;
22786;SDS011;63134;52.020;4.714;2023-01-26T10:32:11;53.00;;;7.68;;
22786;SDS011;63134;52.020;4.714;2023-01-26T10:34:58;42.92;;;7.32;;
22786;SDS011;63134;52.020;4.714;2023-01-26T10:37:43;41.78;;;7.03;;
22786;SDS011;63134;52.020;4.714;2023-01-26T10:40:30;40.08;;;7.15;;
22786;SDS011;63134;52.020;4.714;2023-01-26T10:43:34;52.10;;;7.43;;
22786;SDS011;63134;52.020;4.714;2023-01-26T10:49:23;46.90;;;7.38;;
22786;SDS011;63134;52.020;4.714;2023-01-26T10:52:16;47.50;;;6.63;;
22786;SDS011;63134;52.020;4.714;2023-01-26T10:55:09;41.17;;;7.53;;
22786;SDS011;63134;52.020;4.714;2023-01-26T11:01:52;43.83;;;7.00;;
22786;SDS011;63134;52.020;4.714;2023-01-26T11:07:46;43.47;;;6.25;;
22786;SDS011;63134;52.020;4.714;2023-01-26T11:10:39;38.40;;;6.97;;
22786;SDS011;63134;52.020;4.714;2023-01-26T11:13:36;47.97;;;6.97;;
22786;SDS011;63134;52.020;4.714;2023-01-26T11:16:22;39.78;;;5.65;;
22786;SDS011;63134;52.020;4.714;2023-01-26T11:19:16;38.58;;;7.47;;
22786;SDS011;63134;52.020;4.714;2023-01-26T11:22:16;26.83;;;5.97;;
22786;SDS011;63134;52.020;4.714;2023-01-26T11:25:08;33.03;;;6.18;;
22786;SDS011;63134;52.020;4.714;2023-01-26T11:34:38;21.08;;;4.78;;
22786;SDS011;63134;52.020;4.714;2023-01-26T11:41:06;25.10;;;3.80;;
22786;SDS011;63134;52.020;4.714;2023-01-26T11:47:38;22.10;;;4.68;;
22786;SDS011;63134;52.020;4.714;2023-01-26T11:59:54;21.58;;;4.15;;
22786;SDS011;63134;52.020;4.714;2023-01-26T12:02:44;15.82;;;3.33;;
22786;SDS011;63134;52.020;4.714;2023-01-26T12:05:45;20.98;;;3.90;;
22786;SDS011;63134;52.020;4.714;2023-01-26T12:08:42;13.32;;;3.00;;
22786;SDS011;63134;52.020;4.714;2023-01-26T12:11:38;17.73;;;4.00;;
22786;SDS011;63134;52.020;4.714;2023-01-26T12:20:52;24.67;;;5.05;;
22786;SDS011;63134;52.020;4.714;2023-01-26T12:27:26;23.83;;;4.60;;
22786;SDS011;63134;52.020;4.714;2023-01-26T12:30:56;24.90;;;4.80;;
22786;SDS011;63134;52.020;4.714;2023-01-26T12:33:39;24.67;;;4.78;;
22786;SDS011;63134;52.020;4.714;2023-01-26T12:39:44;22.05;;;4.20;;
22786;SDS011;63134;52.020;4.714;2023-01-26T12:42:41;24.35;;;4.70;;
22786;SDS011;63134;52.020;4.714;2023-01-26T12:45:36;21.75;;;4.63;;
22786;SDS011;63134;52.020;4.714;2023-01-26T12:48:37;18.73;;;4.18;;
22786;SDS011;63134;52.020;4.714;2023-01-26T12:51:30;21.15;;;4.13;;
22786;SDS011;63134;52.020;4.714;2023-01-26T12:54:21;24.52;;;4.20;;
22786;SDS011;63134;52.020;4.714;2023-01-26T12:57:38;18.92;;;3.80;;
22786;SDS011;63134;52.020;4.714;2023-01-26T13:00:29;25.67;;;4.25;;
22786;SDS011;63134;52.020;4.714;2023-01-26T13:03:24;23.77;;;4.50;;
22786;SDS011;63134;52.020;4.714;2023-01-26T13:09:02;24.42;;;4.47;;
22786;SDS011;63134;52.020;4.714;2023-01-26T13:12:02;24.23;;;4.53;;
22786;SDS011;63134;52.020;4.714;2023-01-26T13:17:46;18.42;;;3.90;;
22786;SDS011;63134;52.020;4.714;2023-01-26T13:20:46;16.00;;;3.38;;
22786;SDS011;63134;52.020;4.714;2023-01-26T13:23:39;19.02;;;2.95;;
22786;SDS011;63134;52.020;4.714;2023-01-26T13:35:06;19.00;;;3.80;;
22786;SDS011;63134;52.020;4.714;2023-01-26T13:40:57;16.75;;;2.85;;
22786;SDS011;63134;52.020;4.714;2023-01-26T13:43:51;16.73;;;3.80;;
22786;SDS011;63134;52.020;4.714;2023-01-26T13:46:47;18.98;;;3.38;;
22786;SDS011;63134;52.020;4.714;2023-01-26T13:49:41;19.00;;;3.85;;
22786;SDS011;63134;52.020;4.714;2023-01-26T13:52:29;22.52;;;3.58;;
22786;SDS011;63134;52.020;4.714;2023-01-26T13:55:23;18.45;;;3.40;;
22786;SDS011;63134;52.020;4.714;2023-01-26T13:58:15;25.20;;;3.85;;
22786;SDS011;63134;52.020;4.714;2023-01-26T14:01:06;17.05;;;2.83;;
22786;SDS011;63134;52.020;4.714;2023-01-26T14:04:03;16.05;;;2.92;;
22786;SDS011;63134;52.020;4.714;2023-01-26T14:06:51;21.85;;;3.30;;
22786;SDS011;63134;52.020;4.714;2023-01-26T14:10:03;22.65;;;4.45;;
22786;SDS011;63134;52.020;4.714;2023-01-26T14:12:51;19.17;;;4.03;;
22786;SDS011;63134;52.020;4.714;2023-01-26T14:15:41;24.33;;;4.03;;
22786;SDS011;63134;52.020;4.714;2023-01-26T14:18:27;13.90;;;3.53;;
22786;SDS011;63134;52.020;4.714;2023-01-26T14:21:22;13.82;;;3.35;;
22786;SDS011;63134;52.020;4.714;2023-01-26T14:24:08;13.27;;;2.92;;
22786;SDS011;63134;52.020;4.714;2023-01-26T14:26:57;14.40;;;2.63;;
22786;SDS011;63134;52.020;4.714;2023-01-26T14:29:43;9.98;;;2.58;;
22786;SDS011;63134;52.020;4.714;2023-01-26T14:32:29;13.30;;;4.13;;
22786;SDS011;63134;52.020;4.714;2023-01-26T14:35:17;14.57;;;3.00;;
22786;SDS011;63134;52.020;4.714;2023-01-26T14:40:56;15.27;;;3.25;;
22786;SDS011;63134;52.020;4.714;2023-01-26T14:43:43;16.30;;;3.08;;
22786;SDS011;63134;52.020;4.714;2023-01-26T14:46:35;16.35;;;3.00;;
22786;SDS011;63134;52.020;4.714;2023-01-26T14:49:40;14.32;;;2.63;;
22786;SDS011;63134;52.020;4.714;2023-01-26T14:52:39;16.58;;;3.00;;
22786;SDS011;63134;52.020;4.714;2023-01-26T14:55:30;17.25;;;2.67;;
22786;SDS011;63134;52.020;4.714;2023-01-26T14:58:19;15.65;;;2.55;;
22786;SDS011;63134;52.020;4.714;2023-01-26T15:01:18;19.25;;;3.20;;
22786;SDS011;63134;52.020;4.714;2023-01-26T15:04:14;15.93;;;2.80;;
22786;SDS011;63134;52.020;4.714;2023-01-26T15:13:22;18.98;;;2.85;;
22786;SDS011;63134;52.020;4.714;2023-01-26T15:16:16;17.27;;;3.20;;
22786;SDS011;63134;52.020;4.714;2023-01-26T15:19:04;15.38;;;3.25;;
22786;SDS011;63134;52.020;4.714;2023-01-26T15:21:55;13.93;;;3.15;;
22786;SDS011;63134;52.020;4.714;2023-01-26T15:24:41;13.43;;;3.33;;
22786;SDS011;63134;52.020;4.714;2023-01-26T15:27:34;18.58;;;3.65;;
22786;SDS011;63134;52.020;4.714;2023-01-26T15:30:25;23.50;;;3.85;;
22786;SDS011;63134;52.020;4.714;2023-01-26T15:36:21;21.98;;;3.40;;
22786;SDS011;63134;52.020;4.714;2023-01-26T15:39:22;16.75;;;3.00;;
22786;SDS011;63134;52.020;4.714;2023-01-26T15:42:12;13.90;;;2.92;;
22786;SDS011;63134;52.020;4.714;2023-01-26T15:48:21;12.98;;;2.75;;
22786;SDS011;63134;52.020;4.714;2023-01-26T15:51:13;14.65;;;2.55;;
22786;SDS011;63134;52.020;4.714;2023-01-26T15:54:23;19.10;;;3.05;;
22786;SDS011;63134;52.020;4.714;2023-01-26T15:57:09;13.93;;;2.70;;
22786;SDS011;63134;52.020;4.714;2023-01-26T15:59:56;15.98;;;2.25;;
22786;SDS011;63134;52.020;4.714;2023-01-26T16:02:42;9.52;;;2.30;;
22786;SDS011;63134;52.020;4.714;2023-01-26T16:05:31;9.50;;;2.42;;
22786;SDS011;63134;52.020;4.714;2023-01-26T16:08:16;14.63;;;2.25;;
22786;SDS011;63134;52.020;4.714;2023-01-26T16:11:04;9.85;;;2.60;;
22786;SDS011;63134;52.020;4.714;2023-01-26T16:13:53;13.88;;;2.58;;
22786;SDS011;63134;52.020;4.714;2023-01-26T16:16:48;14.40;;;2.95;;
22786;SDS011;63134;52.020;4.714;2023-01-26T16:19:33;11.55;;;3.17;;
22786;SDS011;63134;52.020;4.714;2023-01-26T16:22:22;18.67;;;3.33;;
22786;SDS011;63134;52.020;4.714;2023-01-26T16:25:29;16.40;;;2.97;;
22786;SDS011;63134;52.020;4.714;2023-01-26T16:28:15;9.00;;;2.83;;
22786;SDS011;63134;52.020;4.714;2023-01-26T16:31:02;12.73;;;2.70;;
22786;SDS011;63134;52.020;4.714;2023-01-26T16:39:28;18.13;;;3.28;;
22786;SDS011;63134;52.020;4.714;2023-01-26T16:42:16;13.55;;;3.55;;
22786;SDS011;63134;52.020;4.714;2023-01-26T16:45:04;18.98;;;4.10;;
22786;SDS011;63134;52.020;4.714;2023-01-26T16:47:55;17.33;;;3.40;;
22786;SDS011;63134;52.020;4.714;2023-01-26T16:50:42;13.65;;;2.90;;
22786;SDS011;63134;52.020;4.714;2023-01-26T16:53:32;14.32;;;3.08;;
22786;SDS011;63134;52.020;4.714;2023-01-26T16:56:19;19.15;;;2.75;;
22786;SDS011;63134;52.020;4.714;2023-01-26T16:59:05;11.48;;;2.70;;
22786;SDS011;63134;52.020;4.714;2023-01-26T17:01:50;19.90;;;3.42;;
22786;SDS011;63134;52.020;4.714;2023-01-26T17:04:45;14.65;;;3.45;;
22786;SDS011;63134;52.020;4.714;2023-01-26T17:07:30;14.68;;;2.85;;
22786;SDS011;63134;52.020;4.714;2023-01-26T17:10:16;18.42;;;3.30;;
22786;SDS011;63134;52.020;4.714;2023-01-26T17:13:44;12.40;;;2.67;;
22786;SDS011;63134;52.020;4.714;2023-01-26T17:16:30;16.85;;;3.50;;
22786;SDS011;63134;52.020;4.714;2023-01-26T17:19:17;22.02;;;3.60;;
22786;SDS011;63134;52.020;4.714;2023-01-26T17:22:02;32.08;;;4.72;;
22786;SDS011;63134;52.020;4.714;2023-01-26T17:24:51;25.98;;;3.65;;
22786;SDS011;63134;52.020;4.714;2023-01-26T17:27:37;20.13;;;3.72;;
22786;SDS011;63134;52.020;4.714;2023-01-26T17:30:22;22.00;;;3.47;;
22786;SDS011;63134;52.020;4.714;2023-01-26T17:33:08;19.88;;;3.75;;
22786;SDS011;63134;52.020;4.714;2023-01-26T17:36:00;27.40;;;4.93;;
22786;SDS011;63134;52.020;4.714;2023-01-26T17:38:51;23.33;;;4.20;;
22786;SDS011;63134;52.020;4.714;2023-01-26T17:41:39;19.55;;;3.63;;
22786;SDS011;63134;52.020;4.714;2023-01-26T17:44:25;26.55;;;4.07;;
22786;SDS011;63134;52.020;4.714;2023-01-26T17:47:11;21.90;;;3.88;;
22786;SDS011;63134;52.020;4.714;2023-01-26T17:49:56;21.48;;;3.50;;
22786;SDS011;63134;52.020;4.714;2023-01-26T17:52:42;20.80;;;3.88;;
22786;SDS011;63134;52.020;4.714;2023-01-26T17:55:27;18.15;;;3.78;;
22786;SDS011;63134;52.020;4.714;2023-01-26T17:58:15;18.83;;;3.42;;
22786;SDS011;63134;52.020;4.714;2023-01-26T18:01:01;17.92;;;4.07;;
22786;SDS011;63134;52.020;4.714;2023-01-26T18:03:48;23.65;;;3.22;;
22786;SDS011;63134;52.020;4.714;2023-01-26T18:06:34;21.98;;;3.20;;
22786;SDS011;63134;52.020;4.714;2023-01-26T18:09:20;12.50;;;3.50;;
22786;SDS011;63134;52.020;4.714;2023-01-26T18:12:05;26.35;;;4.70;;
22786;SDS011;63134;52.020;4.714;2023-01-26T18:14:58;16.30;;;3.53;;
22786;SDS011;63134;52.020;4.714;2023-01-26T18:17:44;18.63;;;3.95;;
22786;SDS011;63134;52.020;4.714;2023-01-26T18:20:30;17.23;;;3.97;;
22786;SDS011;63134;52.020;4.714;2023-01-26T18:23:15;15.77;;;3.20;;
22786;SDS011;63134;52.020;4.714;2023-01-26T18:26:02;23.05;;;4.28;;